createdAt,value
2023-02-19T00:00:49.395Z,91.11
2023-02-19T00:02:53.117Z,91.42
2023-02-19T00:04:56.272Z,91.13
2023-02-19T00:06:59.232Z,91.14
2023-02-19T00:09:02.713Z,91.29
2023-02-19T00:11:07.821Z,91.48
2023-02-19T00:13:10.996Z,91.37
2023-02-19T00:15:15.490Z,90.99
2023-02-19T00:17:18.391Z,90.84
2023-02-19T00:19:21.918Z,90.88
2023-02-19T00:21:25.949Z,91.26
2023-02-19T00:23:28.995Z,91.35
2023-02-19T00:25:32.271Z,91.67
2023-02-19T00:27:35.393Z,91.86
2023-02-19T00:29:38.323Z,92.09
2023-02-19T00:31:42.968Z,92.28
2023-02-19T00:33:46.478Z,92.63
2023-02-19T00:35:49.442Z,91.93
2023-02-19T00:37:52.273Z,92.35
2023-02-19T00:39:55.234Z,92.41
2023-02-19T00:41:58.115Z,92.37
2023-02-19T00:44:02.923Z,92.43
2023-02-19T00:46:05.982Z,92.55
2023-02-19T00:48:11.074Z,92.75
2023-02-19T00:50:14.640Z,93.27
2023-02-19T00:52:17.676Z,93.28
2023-02-19T00:54:22.854Z,93.34
2023-02-19T00:56:25.875Z,93.58
2023-02-19T00:58:29.346Z,93.74
2023-02-19T01:00:33.895Z,93.57
2023-02-19T01:02:36.794Z,94.03
2023-02-19T01:04:41.335Z,93.85
2023-02-19T01:06:44.234Z,94.28
2023-02-19T01:08:47.561Z,94.35
2023-02-19T01:10:50.351Z,94.26
2023-02-19T01:12:53.293Z,94.01
2023-02-19T01:14:56.232Z,94.35
2023-02-19T01:16:59.510Z,94.29
2023-02-19T01:19:02.550Z,95.13
2023-02-19T01:21:09.580Z,94.39
2023-02-19T01:23:14.359Z,94.11
2023-02-19T01:25:17.499Z,94.39
2023-02-19T01:27:20.589Z,94.15
2023-02-19T01:29:23.549Z,94.09
2023-02-19T01:31:27.487Z,94.00
2023-02-19T01:33:31.069Z,94.21
2023-02-19T01:35:34.079Z,93.97
2023-02-19T01:37:38.833Z,94.25
2023-02-19T01:39:41.793Z,93.62
2023-02-19T01:41:44.782Z,93.81
2023-02-19T01:44:00.432Z,94.14
2023-02-19T01:46:04.752Z,93.47
2023-02-19T01:48:12.236Z,93.65
2023-02-19T01:50:15.432Z,93.39
2023-02-19T01:52:24.015Z,93.66
2023-02-19T01:54:31.901Z,93.63
2023-02-19T01:56:38.636Z,93.58
2023-02-19T01:58:42.273Z,93.60
2023-02-19T02:00:45.513Z,93.58
2023-02-19T02:02:53.245Z,93.82
2023-02-19T02:04:58.872Z,93.92
2023-02-19T02:07:24.195Z,93.75
2023-02-19T02:09:49.039Z,94.06
2023-02-19T02:11:53.052Z,93.79
2023-02-19T02:13:57.394Z,93.99
2023-02-19T02:16:09.198Z,93.97
2023-02-19T02:18:20.996Z,93.86
2023-02-19T02:20:36.011Z,93.88
2023-02-19T02:22:46.031Z,94.16
2023-02-19T02:25:21.994Z,93.97
2023-02-19T02:27:39.321Z,93.88
2023-02-19T02:30:20.193Z,93.93
2023-02-19T02:32:27.476Z,94.11
2023-02-19T02:34:35.736Z,93.96
2023-02-19T02:36:42.359Z,93.97
2023-02-19T02:38:49.796Z,94.48
2023-02-19T02:40:57.444Z,94.29
2023-02-19T02:43:01.488Z,94.52
2023-02-19T02:45:37.174Z,94.63
2023-02-19T02:47:51.366Z,94.50
2023-02-19T02:50:05.411Z,94.56
2023-02-19T02:52:29.615Z,94.86
2023-02-19T02:54:53.506Z,94.61
2023-02-19T02:56:59.766Z,95.00
2023-02-19T02:59:09.246Z,94.80
2023-02-19T03:01:37.274Z,94.42
2023-02-19T03:03:44.435Z,94.73
2023-02-19T03:05:53.299Z,94.52
2023-02-19T03:08:04.548Z,94.85
2023-02-19T03:10:13.954Z,94.73
2023-02-19T03:12:37.914Z,94.32
2023-02-19T03:15:05.315Z,94.76
2023-02-19T03:17:33.034Z,94.94
2023-02-19T03:19:43.473Z,94.56
2023-02-19T03:21:51.041Z,94.78
2023-02-19T03:24:14.753Z,95.00
2023-02-19T03:26:19.852Z,95.26
2023-02-19T03:28:49.323Z,94.99
2023-02-19T03:30:55.982Z,94.90
2023-02-19T03:33:02.914Z,94.67
2023-02-19T03:35:12.032Z,94.83
2023-02-19T03:37:19.711Z,94.91
2023-02-19T03:39:24.153Z,94.94
2023-02-19T03:41:35.073Z,95.10
2023-02-19T03:43:43.129Z,95.06
2023-02-19T03:45:54.226Z,94.96
2023-02-19T03:48:13.631Z,94.62
2023-02-19T03:50:21.990Z,95.06
2023-02-19T03:52:35.624Z,94.94
2023-02-19T03:54:45.073Z,95.19
2023-02-19T03:56:53.347Z,95.34
2023-02-19T03:59:02.636Z,95.16
2023-02-19T04:01:09.907Z,95.17
2023-02-19T04:03:18.716Z,95.29
2023-02-19T04:05:27.445Z,94.98
2023-02-19T04:07:33.140Z,95.38
2023-02-19T04:09:40.196Z,94.94
2023-02-19T04:11:48.918Z,94.87
2023-02-19T04:13:57.217Z,95.00
2023-02-19T04:16:07.349Z,95.14
2023-02-19T04:18:14.877Z,94.89
2023-02-19T04:20:19.280Z,95.33
2023-02-19T04:22:24.319Z,95.46
2023-02-19T04:24:31.569Z,95.26
2023-02-19T04:26:35.959Z,95.25
2023-02-19T04:28:40.388Z,95.29
2023-02-19T04:30:44.067Z,95.23
2023-02-19T04:32:47.020Z,95.25
2023-02-19T04:34:49.997Z,95.41
2023-02-19T04:36:52.852Z,95.21
2023-02-19T04:38:57.316Z,95.16
2023-02-19T04:41:00.282Z,95.53
2023-02-19T04:43:03.193Z,95.56
2023-02-19T04:45:06.674Z,95.35
2023-02-19T04:47:09.711Z,95.69
2023-02-19T04:49:12.621Z,95.55
2023-02-19T04:51:15.674Z,95.20
2023-02-19T04:53:18.600Z,95.39
2023-02-19T04:55:23.055Z,95.46
2023-02-19T04:57:25.914Z,95.24
2023-02-19T04:59:28.914Z,95.63
2023-02-19T05:01:31.851Z,95.28
2023-02-19T05:03:37.630Z,95.53
2023-02-19T05:05:40.771Z,95.52
2023-02-19T05:07:43.721Z,95.71
2023-02-19T05:09:46.514Z,95.58
2023-02-19T05:11:50.914Z,95.73
2023-02-19T05:13:56.510Z,95.80
2023-02-19T05:16:01.502Z,95.72
2023-02-19T05:18:04.818Z,95.62
2023-02-19T05:20:09.191Z,95.52
2023-02-19T05:22:12.070Z,95.58
2023-02-19T05:24:15.020Z,95.77
2023-02-19T05:26:20.780Z,95.70
2023-02-19T05:28:31.434Z,95.91
2023-02-19T05:30:35.701Z,95.18
2023-02-19T05:32:39.350Z,95.71
2023-02-19T05:34:42.277Z,95.84
2023-02-19T05:36:45.517Z,95.88
2023-02-19T05:38:48.711Z,95.91
2023-02-19T05:40:51.949Z,95.48
2023-02-19T05:42:54.845Z,95.65
2023-02-19T05:44:59.390Z,95.53
2023-02-19T05:47:02.356Z,95.77
2023-02-19T05:49:05.275Z,96.51
2023-02-19T05:51:11.036Z,95.63
2023-02-19T05:53:14.511Z,95.68
2023-02-19T05:55:17.671Z,95.54
2023-02-19T05:57:21.917Z,95.39
2023-02-19T05:59:26.404Z,95.80
2023-02-19T06:01:31.391Z,96.35
2023-02-19T06:03:34.267Z,95.80
2023-02-19T06:05:38.192Z,96.09
2023-02-19T06:07:42.150Z,95.86
2023-02-19T06:09:45.157Z,95.58
2023-02-19T06:11:48.030Z,96.45
2023-02-19T06:13:51.154Z,96.26
2023-02-19T06:15:54.188Z,95.78
2023-02-19T06:17:58.803Z,96.50
2023-02-19T06:20:01.993Z,95.93
2023-02-19T06:22:05.017Z,96.07
2023-02-19T06:24:09.714Z,95.88
2023-02-19T06:26:15.638Z,95.58
2023-02-19T06:28:18.552Z,95.89
2023-02-19T06:30:21.538Z,95.74
2023-02-19T06:32:24.972Z,95.59
2023-02-19T06:34:29.614Z,95.75
2023-02-19T06:36:32.512Z,95.84
2023-02-19T06:38:35.437Z,95.87
2023-02-19T06:40:38.315Z,96.01
2023-02-19T06:42:41.436Z,95.78
2023-02-19T06:44:44.477Z,95.88
2023-02-19T06:46:47.467Z,96.43
2023-02-19T06:48:50.565Z,95.54
2023-02-19T06:50:55.728Z,96.21
2023-02-19T06:52:58.536Z,96.16
2023-02-19T06:55:01.592Z,96.32
2023-02-19T06:57:04.673Z,96.08
2023-02-19T06:59:10.618Z,96.29
2023-02-19T07:01:13.806Z,96.45
2023-02-19T07:03:16.833Z,96.28
2023-02-19T07:05:19.755Z,96.65
2023-02-19T07:07:24.240Z,96.07
2023-02-19T07:09:28.843Z,96.42
2023-02-19T07:11:34.314Z,96.22
2023-02-19T07:13:37.351Z,96.19
2023-02-19T07:15:40.316Z,96.20
2023-02-19T07:17:43.311Z,95.75
2023-02-19T07:19:46.451Z,96.00
2023-02-19T07:21:49.295Z,96.26
2023-02-19T07:23:54.123Z,96.01
2023-02-19T07:25:57.691Z,96.75
2023-02-19T07:28:00.830Z,96.10
2023-02-19T07:30:04.434Z,96.87
2023-02-19T07:32:07.828Z,96.27
2023-02-19T07:34:10.830Z,96.18
2023-02-19T07:36:14.850Z,96.16
2023-02-19T07:38:18.673Z,96.55
2023-02-19T07:40:23.153Z,95.95
2023-02-19T07:42:25.953Z,96.50
2023-02-19T07:44:29.008Z,95.94
2023-02-19T07:46:32.483Z,95.86
2023-02-19T07:48:35.701Z,96.23
2023-02-19T07:50:38.995Z,96.11
2023-02-19T07:52:41.997Z,96.34
2023-02-19T07:54:44.916Z,96.46
2023-02-19T07:56:49.475Z,96.29
2023-02-19T07:58:52.475Z,95.61
2023-02-19T08:00:55.650Z,95.82
2023-02-19T08:03:01.637Z,95.49
2023-02-19T08:05:06.098Z,95.67
2023-02-19T08:07:08.956Z,95.48
2023-02-19T08:09:12.323Z,95.92
2023-02-19T08:11:33.880Z,95.71
2023-02-19T08:13:38.583Z,95.79
2023-02-19T08:15:41.535Z,95.66
2023-02-19T08:17:44.475Z,95.39
2023-02-19T08:19:47.316Z,95.02
2023-02-19T08:21:51.051Z,94.81
2023-02-19T08:23:53.913Z,95.48
2023-02-19T08:25:59.009Z,94.78
2023-02-19T08:28:02.239Z,95.60
2023-02-19T08:30:09.301Z,95.23
2023-02-19T08:32:12.271Z,95.27
2023-02-19T08:34:15.353Z,95.68
2023-02-19T08:36:18.368Z,95.14
2023-02-19T08:38:21.474Z,95.71
2023-02-19T08:40:24.677Z,95.15
2023-02-19T08:42:29.916Z,95.18
2023-02-19T08:44:33.609Z,95.58
2023-02-19T08:46:38.474Z,96.00
2023-02-19T08:48:42.034Z,96.00
2023-02-19T08:50:44.953Z,95.75
2023-02-19T08:52:47.832Z,95.28
2023-02-19T08:54:50.750Z,95.59
2023-02-19T08:56:53.910Z,95.55
2023-02-19T08:58:56.991Z,94.56
2023-02-19T09:01:00.003Z,94.61
2023-02-19T09:03:04.619Z,94.61
2023-02-19T09:05:07.925Z,94.10
2023-02-19T09:07:12.741Z,93.99
2023-02-19T09:09:15.590Z,93.56
2023-02-19T09:11:18.611Z,93.15
2023-02-19T09:13:21.447Z,93.62
2023-02-19T09:15:24.429Z,93.63
2023-02-19T09:17:28.080Z,93.95
2023-02-19T09:19:33.032Z,93.99
2023-02-19T09:21:35.911Z,93.59
2023-02-19T09:23:38.914Z,93.21
2023-02-19T09:25:41.793Z,92.97
2023-02-19T09:27:44.834Z,93.21
2023-02-19T09:29:47.953Z,91.63
2023-02-19T09:31:50.929Z,91.88
2023-02-19T09:33:53.943Z,91.52
2023-02-19T09:36:01.555Z,91.49
2023-02-19T09:38:04.476Z,90.55
2023-02-19T09:40:08.318Z,90.98
2023-02-19T09:42:15.890Z,91.20
2023-02-19T09:44:27.996Z,91.47
2023-02-19T09:46:34.356Z,91.21
2023-02-19T09:48:37.454Z,91.05
2023-02-19T09:50:44.618Z,90.50
2023-02-19T09:52:53.104Z,90.53
2023-02-19T09:54:59.813Z,88.81
2023-02-19T09:57:04.101Z,90.18
2023-02-19T09:59:11.992Z,89.35
2023-02-19T10:01:15.751Z,89.10
2023-02-19T10:03:25.991Z,89.37
2023-02-19T10:05:29.590Z,89.31
2023-02-19T10:07:39.717Z,89.96
2023-02-19T10:09:48.909Z,89.86
2023-02-19T10:11:54.383Z,89.85
2023-02-19T10:14:09.564Z,89.93
2023-02-19T10:16:17.849Z,89.26
2023-02-19T10:18:23.522Z,89.50
2023-02-19T10:20:28.182Z,90.48
2023-02-19T10:22:33.009Z,90.44
2023-02-19T10:24:38.317Z,89.62
2023-02-19T10:26:43.190Z,89.54
2023-02-19T10:28:46.172Z,88.95
2023-02-19T10:30:54.098Z,88.98
2023-02-19T10:33:03.115Z,88.78
2023-02-19T10:35:12.073Z,88.78
2023-02-19T10:37:18.405Z,89.26
2023-02-19T10:39:42.392Z,88.95
2023-02-19T10:41:46.791Z,87.79
2023-02-19T10:43:54.772Z,87.13
2023-02-19T10:45:59.111Z,87.18
2023-02-19T10:48:03.322Z,88.34
2023-02-19T10:50:09.244Z,88.74
2023-02-19T10:52:18.102Z,87.16
2023-02-19T10:54:25.893Z,87.66
2023-02-19T10:56:31.752Z,86.33
2023-02-19T10:58:38.111Z,87.38
2023-02-19T11:00:41.274Z,86.36
2023-02-19T11:02:45.097Z,87.58
2023-02-19T11:05:05.556Z,86.75
2023-02-19T11:07:10.752Z,86.81
2023-02-19T11:09:26.595Z,86.34
2023-02-19T11:11:34.170Z,86.44
2023-02-19T11:13:40.069Z,85.03
2023-02-19T11:15:44.630Z,85.11
2023-02-19T11:17:55.385Z,84.43
2023-02-19T11:20:00.798Z,85.59
2023-02-19T11:22:19.271Z,85.31
2023-02-19T11:24:34.436Z,85.36
2023-02-19T11:26:38.592Z,84.29
2023-02-19T11:28:44.592Z,84.31
2023-02-19T11:30:48.686Z,86.67
2023-02-19T11:32:51.581Z,84.28
2023-02-19T11:35:15.073Z,85.87
2023-02-19T11:37:21.252Z,84.30
2023-02-19T11:39:31.358Z,84.56
2023-02-19T11:41:56.953Z,84.96
2023-02-19T11:44:17.074Z,85.67
2023-02-19T11:46:28.111Z,85.65
2023-02-19T11:48:42.564Z,84.94
2023-02-19T11:50:59.555Z,84.18
2023-02-19T11:53:17.152Z,86.65
2023-02-19T11:55:32.152Z,85.14
2023-02-19T11:57:42.493Z,86.36
2023-02-19T11:59:54.791Z,87.07
2023-02-19T12:02:15.530Z,86.61
2023-02-19T12:05:08.518Z,85.13
2023-02-19T12:07:23.810Z,84.58
2023-02-19T12:09:37.470Z,85.09
2023-02-19T12:12:00.512Z,84.52
2023-02-19T12:14:20.957Z,84.69
2023-02-19T12:16:32.068Z,83.46
2023-02-19T12:19:02.588Z,83.42
2023-02-19T12:21:20.604Z,83.21
2023-02-19T12:24:04.848Z,82.46
2023-02-19T12:26:20.708Z,83.18
2023-02-19T12:28:56.547Z,82.01
2023-02-19T12:31:19.885Z,81.46
2023-02-19T12:33:54.040Z,79.01
2023-02-19T12:36:06.359Z,81.24
2023-02-19T12:38:22.686Z,81.02
2023-02-19T12:40:38.350Z,80.46
2023-02-19T12:42:52.406Z,80.02
2023-02-19T12:45:00.673Z,80.07
2023-02-19T12:47:07.321Z,79.55
2023-02-19T12:49:15.711Z,79.64
2023-02-19T12:51:24.393Z,80.58
2023-02-19T12:53:40.072Z,81.09
2023-02-19T12:55:46.353Z,80.31
2023-02-19T12:57:51.635Z,79.80
2023-02-19T13:00:00.596Z,80.72
2023-02-19T13:02:12.617Z,81.67
2023-02-19T13:04:26.483Z,80.44
2023-02-19T13:06:36.856Z,80.05
2023-02-19T13:08:57.871Z,81.51
2023-02-19T13:11:15.606Z,80.09
2023-02-19T13:13:24.801Z,81.25
2023-02-19T13:15:34.750Z,80.76
2023-02-19T13:17:43.077Z,81.36
2023-02-19T13:19:50.760Z,80.07
2023-02-19T13:22:21.998Z,79.18
2023-02-19T13:24:28.358Z,78.73
2023-02-19T13:26:46.157Z,78.36
2023-02-19T13:29:07.199Z,78.53
2023-02-19T13:31:25.416Z,78.33
2023-02-19T13:33:40.436Z,77.75
2023-02-19T13:36:13.396Z,79.39
2023-02-19T13:38:17.098Z,77.75
2023-02-19T13:40:31.415Z,79.65
2023-02-19T13:42:36.565Z,78.76
2023-02-19T13:44:42.156Z,79.33
2023-02-19T13:46:47.915Z,78.37
2023-02-19T13:49:10.320Z,79.33
2023-02-19T13:51:51.463Z,79.41
2023-02-19T13:54:00.113Z,79.25
2023-02-19T13:56:03.240Z,79.18
2023-02-19T13:58:51.834Z,78.16
2023-02-19T14:00:55.414Z,78.56
2023-02-19T14:03:28.694Z,77.64
2023-02-19T14:06:00.474Z,77.39
2023-02-19T14:08:05.035Z,79.33
2023-02-19T14:10:13.192Z,80.83
2023-02-19T14:12:20.800Z,83.10
2023-02-19T14:14:29.164Z,84.13
2023-02-19T14:16:57.032Z,84.87
2023-02-19T14:19:00.110Z,84.52
2023-02-19T14:21:07.837Z,83.36
2023-02-19T14:23:17.480Z,83.31
2023-02-19T14:25:30.190Z,81.69
2023-02-19T14:27:33.153Z,81.84
2023-02-19T14:29:36.047Z,80.30
2023-02-19T14:31:39.389Z,79.96
2023-02-19T14:33:47.152Z,80.20
2023-02-19T14:35:53.921Z,79.90
2023-02-19T14:37:57.766Z,80.18
2023-02-19T14:40:03.228Z,78.48
2023-02-19T14:42:08.874Z,79.69
2023-02-19T14:44:15.636Z,80.31
2023-02-19T14:46:22.675Z,78.38
2023-02-19T14:48:29.830Z,79.71
2023-02-19T14:50:33.590Z,79.80
2023-02-19T14:52:41.302Z,79.31
2023-02-19T14:54:49.390Z,78.18
2023-02-19T14:56:54.846Z,79.96
2023-02-19T14:59:08.109Z,79.35
2023-02-19T15:01:26.566Z,79.64
2023-02-19T15:03:34.721Z,78.36
2023-02-19T15:05:38.112Z,77.38
2023-02-19T15:07:42.559Z,76.59
2023-02-19T15:09:49.470Z,76.13
2023-02-19T15:11:55.351Z,76.00
2023-02-19T15:14:01.337Z,75.69
2023-02-19T15:16:05.275Z,75.14
2023-02-19T15:18:08.431Z,76.01
2023-02-19T15:20:17.402Z,75.30
2023-02-19T15:22:22.750Z,74.84
2023-02-19T15:24:25.895Z,75.49
2023-02-19T15:26:35.004Z,74.15
2023-02-19T15:28:39.555Z,73.56
2023-02-19T15:30:42.434Z,72.45
2023-02-19T15:32:52.785Z,72.30
2023-02-19T15:34:57.114Z,72.30
2023-02-19T15:37:03.012Z,72.94
2023-02-19T15:39:06.195Z,73.29
2023-02-19T15:41:20.144Z,74.10
2023-02-19T15:43:28.122Z,74.22
2023-02-19T15:45:40.226Z,74.07
2023-02-19T15:47:49.512Z,75.01
2023-02-19T15:49:57.801Z,74.23
2023-02-19T15:52:06.095Z,74.43
2023-02-19T15:54:18.753Z,74.99
2023-02-19T15:56:29.743Z,76.00
2023-02-19T15:58:38.553Z,75.15
2023-02-19T16:00:48.475Z,74.88
2023-02-19T16:02:51.420Z,76.28
2023-02-19T16:04:54.323Z,75.80
2023-02-19T16:06:58.882Z,77.51
2023-02-19T16:09:06.042Z,77.38
2023-02-19T16:11:30.159Z,76.73
2023-02-19T16:13:35.402Z,76.34
2023-02-19T16:15:40.312Z,75.40
2023-02-19T16:17:45.774Z,75.42
2023-02-19T16:19:54.843Z,75.61
2023-02-19T16:21:59.113Z,77.12
2023-02-19T16:24:11.732Z,75.35
2023-02-19T16:26:14.972Z,76.66
2023-02-19T16:28:24.388Z,76.17
2023-02-19T16:30:30.546Z,75.79
2023-02-19T16:32:33.648Z,74.91
2023-02-19T16:34:42.808Z,76.62
2023-02-19T16:36:48.675Z,74.16
2023-02-19T16:39:17.464Z,76.71
2023-02-19T16:41:20.688Z,74.04
2023-02-19T16:43:38.219Z,73.67
2023-02-19T16:45:42.229Z,73.07
2023-02-19T16:47:48.661Z,71.71
2023-02-19T16:49:53.437Z,71.90
2023-02-19T16:51:56.755Z,72.91
2023-02-19T16:53:59.681Z,73.00
2023-02-19T16:56:02.778Z,72.84
2023-02-19T16:58:05.617Z,72.92
2023-02-19T17:00:09.438Z,71.03
2023-02-19T17:02:19.676Z,72.63
2023-02-19T17:04:22.644Z,72.50
2023-02-19T17:06:27.536Z,73.89
2023-02-19T17:08:34.406Z,74.03
2023-02-19T17:10:37.275Z,74.16
2023-02-19T17:12:40.055Z,75.65
2023-02-19T17:14:43.198Z,75.24
2023-02-19T17:16:46.295Z,75.72
2023-02-19T17:18:49.486Z,75.97
2023-02-19T17:20:57.583Z,73.94
2023-02-19T17:23:02.111Z,74.27
2023-02-19T17:25:05.574Z,74.66
2023-02-19T17:27:11.673Z,75.86
2023-02-19T17:29:15.761Z,74.08
2023-02-19T17:31:19.012Z,74.34
2023-02-19T17:33:21.952Z,75.51
2023-02-19T17:35:25.502Z,75.31
2023-02-19T17:37:28.353Z,73.89
2023-02-19T17:39:32.841Z,76.38
2023-02-19T17:41:35.964Z,75.37
2023-02-19T17:43:38.754Z,75.63
2023-02-19T17:45:41.648Z,76.16
2023-02-19T17:47:44.511Z,75.62
2023-02-19T17:49:47.308Z,74.45
2023-02-19T17:51:50.118Z,74.23
2023-02-19T17:53:53.055Z,76.36
2023-02-19T17:55:57.351Z,75.55
2023-02-19T17:58:00.789Z,76.57
2023-02-19T18:00:04.842Z,76.22
2023-02-19T18:02:15.280Z,75.63
2023-02-19T18:04:18.198Z,76.58
2023-02-19T18:06:21.172Z,75.58
2023-02-19T18:08:24.071Z,75.75
2023-02-19T18:10:27.586Z,75.70
2023-02-19T18:12:32.074Z,75.51
2023-02-19T18:14:34.855Z,76.89
2023-02-19T18:16:37.832Z,76.68
2023-02-19T18:18:41.704Z,76.77
2023-02-19T18:20:44.713Z,77.93
2023-02-19T18:22:47.603Z,78.63
2023-02-19T18:24:52.966Z,79.64
2023-02-19T18:26:55.870Z,78.91
2023-02-19T18:29:00.451Z,79.19
2023-02-19T18:31:03.540Z,80.39
2023-02-19T18:33:06.952Z,80.57
2023-02-19T18:35:10.271Z,80.88
2023-02-19T18:37:13.112Z,81.69
2023-02-19T18:39:16.431Z,81.02
2023-02-19T18:41:21.270Z,81.96
2023-02-19T18:43:24.512Z,82.10
2023-02-19T18:45:29.952Z,81.86
2023-02-19T18:47:33.032Z,82.87
2023-02-19T18:49:35.989Z,82.21
2023-02-19T18:51:38.803Z,83.01
2023-02-19T18:53:43.037Z,83.55
2023-02-19T18:55:45.812Z,83.20
2023-02-19T18:57:49.609Z,83.72
2023-02-19T18:59:52.565Z,83.22
2023-02-19T19:01:57.202Z,83.84
2023-02-19T19:04:00.676Z,83.39
2023-02-19T19:06:03.836Z,82.57
2023-02-19T19:08:06.673Z,82.28
2023-02-19T19:10:10.435Z,83.68
2023-02-19T19:12:13.274Z,84.00
2023-02-19T19:14:16.168Z,83.13
2023-02-19T19:16:19.038Z,83.08
2023-02-19T19:18:23.577Z,83.10
2023-02-19T19:20:26.583Z,82.74
2023-02-19T19:22:29.481Z,82.93
2023-02-19T19:24:32.421Z,81.76
2023-02-19T19:26:35.751Z,83.21
2023-02-19T19:28:44.728Z,82.32
2023-02-19T19:30:47.704Z,81.59
2023-02-19T19:32:51.871Z,81.28
2023-02-19T19:34:58.088Z,82.28
2023-02-19T19:37:01.199Z,82.15
2023-02-19T19:39:04.723Z,82.12
2023-02-19T19:41:07.957Z,81.51
2023-02-19T19:43:10.996Z,81.87
2023-02-19T19:45:14.836Z,81.33
2023-02-19T19:47:18.040Z,80.74
2023-02-19T19:49:22.639Z,80.55
2023-02-19T19:51:31.678Z,82.00
2023-02-19T19:53:34.599Z,81.55
2023-02-19T19:55:37.716Z,81.83
2023-02-19T19:57:40.983Z,81.75
2023-02-19T19:59:44.074Z,81.80
2023-02-19T20:01:52.583Z,82.46
2023-02-19T20:03:55.759Z,81.79
2023-02-19T20:05:58.875Z,82.73
2023-02-19T20:08:03.490Z,83.51
2023-02-19T20:10:07.330Z,83.17
2023-02-19T20:12:11.231Z,83.34
2023-02-19T20:14:14.795Z,82.56
2023-02-19T20:16:23.435Z,82.90
2023-02-19T20:18:26.954Z,83.66
2023-02-19T20:20:30.914Z,83.35
2023-02-19T20:22:33.914Z,82.00
2023-02-19T20:24:38.485Z,82.26
2023-02-19T20:26:41.455Z,83.48
2023-02-19T20:28:46.794Z,82.08
2023-02-19T20:30:50.143Z,81.93
2023-02-19T20:32:53.922Z,81.78
2023-02-19T20:34:56.834Z,82.47
2023-02-19T20:37:00.001Z,82.52
2023-02-19T20:39:02.915Z,81.90
2023-02-19T20:41:07.474Z,82.95
2023-02-19T20:43:10.393Z,82.86
2023-02-19T20:45:17.028Z,83.54
2023-02-19T20:47:19.843Z,82.44
2023-02-19T20:49:25.633Z,83.04
2023-02-19T20:51:28.599Z,82.12
2023-02-19T20:53:32.360Z,83.93
2023-02-19T20:55:35.474Z,83.55
2023-02-19T20:57:40.095Z,82.43
2023-02-19T20:59:44.432Z,81.99
2023-02-19T21:01:47.521Z,82.70
2023-02-19T21:03:50.433Z,83.97
2023-02-19T21:05:53.336Z,83.45
2023-02-19T21:07:56.164Z,84.27
2023-02-19T21:09:59.193Z,84.04
2023-02-19T21:12:02.158Z,84.41
2023-02-19T21:14:06.675Z,83.64
2023-02-19T21:16:10.285Z,83.14
2023-02-19T21:18:13.676Z,84.89
2023-02-19T21:20:20.434Z,83.58
2023-02-19T21:22:23.674Z,83.78
2023-02-19T21:24:26.746Z,84.75
2023-02-19T21:26:35.355Z,84.11
2023-02-19T21:28:38.834Z,84.01
2023-02-19T21:30:43.326Z,84.50
2023-02-19T21:32:46.269Z,84.40
2023-02-19T21:34:49.358Z,85.28
2023-02-19T21:36:52.520Z,85.13
2023-02-19T21:38:55.477Z,85.38
2023-02-19T21:40:58.474Z,85.64
2023-02-19T21:43:02.114Z,84.71
2023-02-19T21:45:05.706Z,85.12
2023-02-19T21:47:11.717Z,85.73
2023-02-19T21:49:14.529Z,84.69
2023-02-19T21:51:18.358Z,85.96
2023-02-19T21:53:21.353Z,85.71
2023-02-19T21:55:24.316Z,85.46
2023-02-19T21:57:27.324Z,85.83
2023-02-19T21:59:30.288Z,84.52
2023-02-19T22:01:35.711Z,84.90
2023-02-19T22:03:40.131Z,85.83
2023-02-19T22:05:43.230Z,85.14
2023-02-19T22:07:47.914Z,85.20
2023-02-19T22:09:51.593Z,85.60
2023-02-19T22:11:54.432Z,85.61
2023-02-19T22:13:57.289Z,85.29
2023-02-19T22:16:00.316Z,85.59
2023-02-19T22:18:03.535Z,86.73
2023-02-19T22:20:08.910Z,85.82
2023-02-19T22:22:11.807Z,85.44
2023-02-19T22:24:17.910Z,85.87
2023-02-19T22:26:22.752Z,85.99
2023-02-19T22:28:25.729Z,85.79
2023-02-19T22:30:28.672Z,85.74
2023-02-19T22:32:32.023Z,86.32
2023-02-19T22:34:39.671Z,86.02
2023-02-19T22:36:44.725Z,86.52
2023-02-19T22:38:48.082Z,86.71
2023-02-19T22:40:51.029Z,86.45
2023-02-19T22:42:53.949Z,86.03
2023-02-19T22:44:56.949Z,86.77
2023-02-19T22:47:00.218Z,87.00
2023-02-19T22:49:05.036Z,86.35
2023-02-19T22:51:13.379Z,87.04
2023-02-19T22:53:17.784Z,86.79
2023-02-19T22:55:20.809Z,87.50
2023-02-19T22:57:23.749Z,87.71
2023-02-19T22:59:26.670Z,87.62
2023-02-19T23:01:29.644Z,87.62
2023-02-19T23:03:32.634Z,87.73
2023-02-19T23:05:35.673Z,87.50
2023-02-19T23:07:38.672Z,87.87
2023-02-19T23:09:43.294Z,88.68
2023-02-19T23:11:46.596Z,88.41
2023-02-19T23:13:49.797Z,88.47
2023-02-19T23:15:52.716Z,89.02
2023-02-19T23:17:55.726Z,88.46
2023-02-19T23:19:58.528Z,88.06
2023-02-19T23:22:01.596Z,87.94
2023-02-19T23:24:05.956Z,88.75
2023-02-19T23:26:11.225Z,88.49
2023-02-19T23:28:14.390Z,87.73
2023-02-19T23:30:18.097Z,87.95
2023-02-19T23:32:21.437Z,88.00
2023-02-19T23:34:24.844Z,87.79
2023-02-19T23:36:27.715Z,88.60
2023-02-19T23:38:30.721Z,88.24
2023-02-19T23:40:33.595Z,87.62
2023-02-19T23:42:38.116Z,87.60
2023-02-19T23:44:41.003Z,88.11
2023-02-19T23:46:44.075Z,88.13
2023-02-19T23:48:47.024Z,88.29
2023-02-19T23:50:50.151Z,88.30
2023-02-19T23:52:52.929Z,87.88
2023-02-19T23:54:56.954Z,87.32
2023-02-19T23:56:59.957Z,87.46
2023-02-19T23:59:04.716Z,87.48
